createdAt,value
2023-05-26T00:21:18.837Z,55
2023-05-26T00:50:37.163Z,56
2023-05-26T01:19:58.706Z,55
2023-05-26T01:49:18.705Z,57
2023-05-26T02:18:43.293Z,58
2023-05-26T02:48:04.902Z,58
2023-05-26T03:17:16.356Z,58
2023-05-26T03:46:40.512Z,59
2023-05-26T04:15:53.108Z,59
2023-05-26T04:45:15.563Z,60
2023-05-26T05:13:53.508Z,60
2023-05-26T05:42:55.772Z,68
2023-05-26T06:12:05.736Z,66
2023-05-26T06:41:15.863Z,65
2023-05-26T07:10:26.767Z,65
2023-05-26T07:39:44.996Z,63
2023-05-26T08:09:04.394Z,61
2023-05-26T08:38:15.381Z,59
2023-05-26T09:07:35.329Z,57
2023-05-26T09:36:34.678Z,57
2023-05-26T10:05:49.268Z,55
2023-05-26T10:35:12.225Z,53
2023-05-26T11:04:32.468Z,50
2023-05-26T11:33:51.482Z,50
2023-05-26T12:03:20.643Z,46
2023-05-26T12:32:43.717Z,39
2023-05-26T13:02:06.887Z,36
2023-05-26T13:31:27.557Z,39
2023-05-26T14:00:32.586Z,37
2023-05-26T14:29:59.336Z,34
2023-05-26T14:59:24.706Z,33
2023-05-26T15:28:45.362Z,34
2023-05-26T15:58:08.184Z,32
2023-05-26T16:27:27.432Z,31
2023-05-26T16:56:47.321Z,31
2023-05-26T17:25:58.695Z,35
2023-05-26T17:55:11.380Z,38
2023-05-26T18:24:15.161Z,39
2023-05-26T18:53:24.648Z,41
2023-05-26T19:22:28.106Z,42
2023-05-26T19:51:33.036Z,43
2023-05-26T20:20:34.689Z,44
2023-05-26T20:49:37.548Z,45
2023-05-26T21:18:40.544Z,46
2023-05-26T21:47:53.139Z,46
2023-05-26T22:17:06.489Z,47
2023-05-26T22:46:24.779Z,48
2023-05-26T23:15:33.828Z,49
2023-05-26T23:44:56.158Z,51
